Terminal Aerodrome Forecast
Issued by NWS

Home | Current Version | Previous Version | Text Only | Print | Product List | Glossary On
Versions: 1 2 3 4 5 6 7 8 9 10 11 12 13 14 15 16 17 18
000
FTUS43 KMQT 221600 AAA
TAFSAW
TAF AMD
KSAW 221616Z 2216/2312 17012KT 1/2SM FG OVC002
     FM221800 17010KT 2SM BR OVC008
     FM222100 15009KT P6SM OVC020
     FM230400 12007KT P6SM -SN OVC015
     FM230800 10007KT 3SM -SN OVC008
     FM231100 08008KT 1SM -SN OVC005
      AMD LTD TO CLD VIS AND WIND 2303/2311=

USA.gov is the U.S. government's official web portal to all federal, state and local government web resources and services.